Time;durP1;ratioP1;P1;durP2;ratioP2;P2;SDS_P1;SDS_P2;PMS_P1;PMS_P2;Temp;Humidity;BMP_temperature;BMP_pressure;BME280_temperature;BME280_humidity;BME280_pressure;Samples;Min_cycle;Max_cycle;Signal;HPM_P1;HPM_P2
2022/04/30 00:00:29;;;;;;;;;;;;;;;;;;6205842;23;19904;-47
2022/04/30 00:02:57;;;;;;;;;;;;;;;;;;6206270;23;19904;-49
2022/04/30 00:05:23;;;;;;;;;;;;;;;;;;6206064;23;20284;-48
2022/04/30 00:07:49;;;;;;;;;;;;;;;;;;6206050;23;19911;-50
2022/04/30 00:10:15;;;;;;;;;;;;;;;;;;6206216;23;19958;-48
2022/04/30 00:12:41;;;;;;;;;;;;;;;;;;6206154;23;19953;-47
2022/04/30 00:15:07;;;;;;;;;;;;;;;;;;6205561;23;19907;-50
2022/04/30 00:17:32;;;;;;;;;;;;;;;;;;6206375;23;19977;-51
2022/04/30 00:20:00;;;;;;;;;;;;;;;;;;6205980;23;19900;-48
2022/04/30 00:22:25;;;;;;;;;;;;;;;;;;6205991;23;19906;-50
2022/04/30 00:24:51;;;;;;;;;;;;;;;;;;6206200;23;19982;-52
2022/04/30 00:27:20;;;;;;;;;;;;;;;;;;6205779;23;19954;-49
2022/04/30 00:29:46;;;;;;;;;;;;;;;;;;6206007;23;20332;-50
2022/04/30 00:32:12;;;;;;;;;;;;;;;;;;6206373;23;19904;-47
2022/04/30 00:34:38;;;;;;;;;;;;;;;;;;6206035;23;20340;-49
2022/04/30 00:37:04;;;;;;;;;;;;;;;;;;6205739;23;19904;-49
2022/04/30 00:39:30;;;;;;;;;;;;;;;;;;6206269;23;19903;-51
2022/04/30 00:41:57;;;;;;;;;;;;;;;;;;6205969;23;20357;-51
2022/04/30 00:44:24;;;;;;;;;;;;;;;;;;6204960;23;19950;-51
2022/04/30 00:46:50;;;;;;;;;;;;;;;;;;6206002;23;19950;-49
2022/04/30 00:49:17;;;;;;;;;;;;;;;;;;6206350;23;19900;-51
2022/04/30 00:51:46;;;;;;;;;;;;;;;;;;6206777;23;20248;-51
2022/04/30 00:54:11;;;;;;;;;;;;;;;;;;6206385;23;20292;-50
2022/04/30 00:56:37;;;;;;;;;;;;;;;;;;6205921;23;19942;-48
2022/04/30 00:59:03;;;;;;;;;;;;;;;;;;6205007;23;19983;-48
2022/04/30 01:01:30;;;;;;;;;;;;;;;;;;6206216;23;19903;-50
2022/04/30 01:03:56;;;;;;;;;;;;;;;;;;6205653;23;19935;-48
2022/04/30 01:06:22;;;;;;;;;;;;;;;;;;6205330;23;19984;-48
2022/04/30 01:08:49;;;;;;;;;;;;;;;;;;6205752;23;19979;-50
2022/04/30 01:11:15;;;;;;;;;;;;;;;;;;6206108;23;20353;-51
2022/04/30 01:13:41;;;;;;;;;;;;;;;;;;6206214;23;19976;-47
2022/04/30 01:16:07;;;;;;;;;;;;;;;;;;6205159;23;19908;-51
2022/04/30 01:18:34;;;;;;;;;;;;;;;;;;6205962;23;19907;-51
2022/04/30 01:21:03;;;;;;;;;;;;;;;;;;6205368;23;19930;-52
2022/04/30 01:23:29;;;;;;;;;;;;;;;;;;6206539;23;19975;-48
2022/04/30 01:25:56;;;;;;;;;;;;;;;;;;6207869;23;20361;-52
2022/04/30 01:28:22;;;;;;;;;;;;;;;;;;6207188;23;20352;-47
2022/04/30 01:30:48;;;;;;;;;;;;;;;;;;6207978;23;19904;-50
2022/04/30 01:38:43;;;;;;;;;;;;;;;;;;6208449;23;19907;-49
2022/04/30 01:41:10;;;;;;;;;;;;;;;;;;6207266;23;20249;-51
2022/04/30 01:43:36;;;;;;;;;;;;;;;;;;6207586;23;20509;-52
2022/04/30 01:46:02;;;;;;;;;;;;;;;;;;6207060;23;20253;-51
2022/04/30 01:48:29;;;;;;;;;;;;;;;;;;6207209;23;19904;-49
2022/04/30 01:50:55;;;;;;;;;;;;;;;;;;6207549;23;19908;-51
2022/04/30 01:53:21;;;;;;;;;;;;;;;;;;6206862;23;19910;-51
2022/04/30 01:55:47;;;;;;;;;;;;;;;;;;6207490;23;20407;-51
2022/04/30 01:58:13;;;;;;;;;;;;;;;;;;6207475;23;20226;-51
2022/04/30 02:00:39;;;;;;;;;;;;;;;;;;6207653;23;19900;-50
2022/04/30 02:03:05;;;;;;;;;;;;;;;;;;6206922;23;19903;-51
2022/04/30 02:05:32;;;;;;;;;;;;;;;;;;6208041;23;19904;-49
2022/04/30 02:07:58;;;;;;;;;;;;;;;;;;6207781;23;19911;-49
2022/04/30 02:10:25;;;;;;;;;;;;;;;;;;6206447;23;19954;-50
2022/04/30 02:12:51;;;;;;;;;;;;;;;;;;6207265;23;19955;-52
2022/04/30 02:15:17;;;;;;;;;;;;;;;;;;6206935;23;20337;-51
2022/04/30 02:17:43;;;;;;;;;;;;;;;;;;6208379;23;20332;-51
2022/04/30 02:20:18;;;;;;;;;;;;;;;;;;6206946;23;19950;-50
2022/04/30 02:22:44;;;;;;;;;;;;;;;;;;6208033;23;19900;-51
2022/04/30 02:25:12;;;;;;;;;;;;;;;;;;6206431;23;20260;-50
2022/04/30 02:27:38;;;;;;;;;;;;;;;;;;6207345;23;19904;-50
2022/04/30 02:30:05;;;;;;;;;;;;;;;;;;6206714;23;20345;-49
2022/04/30 02:32:32;;;;;;;;;;;;;;;;;;6206995;23;20102;-51
2022/04/30 02:34:58;;;;;;;;;;;;;;;;;;6206778;23;20569;-48
2022/04/30 02:37:25;;;;;;;;;;;;;;;;;;6206684;23;19904;-50
2022/04/30 02:39:51;;;;;;;;;;;;;;;;;;6207454;23;19911;-50
2022/04/30 02:42:16;;;;;;;;;;;;;;;;;;6206309;23;19904;-48
2022/04/30 02:44:42;;;;;;;;;;;;;;;;;;6207608;23;19941;-47
2022/04/30 02:47:08;;;;;;;;;;;;;;;;;;6206839;23;20325;-51
2022/04/30 02:49:34;;;;;;;;;;;;;;;;;;6207277;23;20330;-50
2022/04/30 02:52:00;;;;;;;;;;;;;;;;;;6206550;23;19914;-48
2022/04/30 02:54:26;;;;;;;;;;;;;;;;;;6206549;23;19904;-49
2022/04/30 02:56:52;;;;;;;;;;;;;;;;;;6206862;23;20249;-47
2022/04/30 03:02:02;;;;;;;;;;;;;;;;;;6206849;23;20344;-47
2022/04/30 03:04:28;;;;;;;;;;;;;;;;;;6206688;23;19899;-50
2022/04/30 03:06:54;;;;;;;;;;;;;;;;;;6206645;23;19962;-49
2022/04/30 03:09:20;;;;;;;;;;;;;;;;;;6206909;23;20143;-50
2022/04/30 03:11:47;;;;;;;;;;;;;;;;;;6206776;23;19943;-47
2022/04/30 03:14:13;;;;;;;;;;;;;;;;;;6207357;23;20301;-50
2022/04/30 03:22:10;;;;;;;;;;;;;;;;;;6206538;23;19954;-48
2022/04/30 03:24:36;;;;;;;;;;;;;;;;;;6206548;23;19904;-50
2022/04/30 03:27:03;;;;;;;;;;;;;;;;;;6206599;23;19932;-47
2022/04/30 03:29:29;;;;;;;;;;;;;;;;;;6205984;23;19904;-49
2022/04/30 03:31:56;;;;;;;;;;;;;;;;;;6206562;23;19931;-51
2022/04/30 03:34:21;;;;;;;;;;;;;;;;;;6206181;23;19911;-51
2022/04/30 03:36:47;;;;;;;;;;;;;;;;;;6206526;23;20246;-50
2022/04/30 03:39:13;;;;;;;;;;;;;;;;;;6207426;23;19907;-51
2022/04/30 03:41:39;;;;;;;;;;;;;;;;;;6204106;23;19899;-49
2022/04/30 03:44:07;;;;;;;;;;;;;;;;;;6206908;23;19904;-48
2022/04/30 03:46:33;;;;;;;;;;;;;;;;;;6204962;23;19900;-49
2022/04/30 03:49:00;;;;;;;;;;;;;;;;;;6206441;23;19927;-48
2022/04/30 03:51:26;;;;;;;;;;;;;;;;;;6205912;23;19985;-50
2022/04/30 03:53:55;;;;;;;;;;;;;;;;;;6206284;23;20386;-48
2022/04/30 03:56:21;;;;;;;;;;;;;;;;;;6205846;23;19904;-51
2022/04/30 03:58:48;;;;;;;;;;;;;;;;;;6206075;23;19911;-49
2022/04/30 04:01:14;;;;;;;;;;;;;;;;;;6207075;23;19975;-47
2022/04/30 04:03:40;;;;;;;;;;;;;;;;;;6206676;23;19928;-49
2022/04/30 04:06:06;;;;;;;;;;;;;;;;;;6205939;23;20256;-50
2022/04/30 04:08:32;;;;;;;;;;;;;;;;;;6206209;23;19999;-49
2022/04/30 04:10:58;;;;;;;;;;;;;;;;;;6206001;23;19910;-50
2022/04/30 04:18:55;;;;;;;;;;;;;;;;;;6206086;23;19974;-51
2022/04/30 04:21:22;;;;;;;;;;;;;;;;;;6205874;23;19979;-52
2022/04/30 04:26:33;;;;;;;;;;;;;;;;;;6205572;23;20386;-50
2022/04/30 04:28:59;;;;;;;;;;;;;;;;;;6206198;23;19923;-52
2022/04/30 04:31:26;;;;;;;;;;;;;;;;;;6205457;23;19904;-49
2022/04/30 04:33:52;;;;;;;;;;;;;;;;;;6205902;23;19904;-48
2022/04/30 04:36:19;;;;;;;;;;;;;;;;;;6205522;23;20159;-51
2022/04/30 04:38:45;;;;;;;;;;;;;;;;;;6206803;23;19906;-52
2022/04/30 04:41:10;;;;;;;;;;;;;;;;;;6206581;23;19986;-50
2022/04/30 04:43:36;;;;;;;;;;;;;;;;;;6205716;23;19946;-52
2022/04/30 04:46:02;;;;;;;;;;;;;;;;;;6205915;23;19949;-53
2022/04/30 04:48:28;;;;;;;;;;;;;;;;;;6206117;23;19943;-49
2022/04/30 04:50:54;;;;;;;;;;;;;;;;;;6205641;23;20292;-50
2022/04/30 04:53:20;;;;;;;;;;;;;;;;;;6205552;23;19943;-52
2022/04/30 04:55:47;;;;;;;;;;;;;;;;;;6205670;23;20256;-51
2022/04/30 04:58:13;;;;;;;;;;;;;;;;;;6207089;23;19900;-51
2022/04/30 05:00:39;;;;;;;;;;;;;;;;;;6207718;23;19904;-51
2022/04/30 05:03:05;;;;;;;;;;;;;;;;;;6208414;23;19903;-49
2022/04/30 05:05:31;;;;;;;;;;;;;;;;;;6207588;23;19900;-48
2022/04/30 05:07:58;;;;;;;;;;;;;;;;;;6207869;23;19916;-49
2022/04/30 05:10:24;;;;;;;;;;;;;;;;;;6207698;23;20502;-51
2022/04/30 05:12:49;;;;;;;;;;;;;;;;;;6207624;23;19900;-49
2022/04/30 05:15:15;;;;;;;;;;;;;;;;;;6207800;23;19906;-50
2022/04/30 05:17:41;;;;;;;;;;;;;;;;;;6208381;23;19927;-52
2022/04/30 05:20:07;;;;;;;;;;;;;;;;;;6207662;23;19908;-51
2022/04/30 05:22:33;;;;;;;;;;;;;;;;;;6207756;23;19900;-52
2022/04/30 05:24:59;;;;;;;;;;;;;;;;;;6207785;23;19900;-50
2022/04/30 05:27:25;;;;;;;;;;;;;;;;;;6207326;23;19906;-52
2022/04/30 05:29:51;;;;;;;;;;;;;;;;;;6207902;23;20329;-51
2022/04/30 05:32:16;;;;;;;;;;;;;;;;;;6207723;23;19966;-49
2022/04/30 05:34:42;;;;;;;;;;;;;;;;;;6208282;23;20333;-51
2022/04/30 05:37:08;;;;;;;;;;;;;;;;;;6207446;23;19939;-50
2022/04/30 05:39:34;;;;;;;;;;;;;;;;;;6205372;23;19962;-50
2022/04/30 05:42:01;;;;;;;;;;;;;;;;;;6207558;23;19978;-48
2022/04/30 05:44:27;;;;;;;;;;;;;;;;;;6207102;23;20413;-51
2022/04/30 05:46:53;;;;;;;;;;;;;;;;;;6207687;23;19900;-48
2022/04/30 05:49:20;;;;;;;;;;;;;;;;;;6207102;23;19908;-51
2022/04/30 05:51:46;;;;;;;;;;;;;;;;;;6207644;23;20005;-52
2022/04/30 05:54:11;;;;;;;;;;;;;;;;;;6207477;23;20401;-49
2022/04/30 05:56:37;;;;;;;;;;;;;;;;;;6206922;23;19908;-52
2022/04/30 05:59:03;;;;;;;;;;;;;;;;;;6207507;23;19922;-49
2022/04/30 06:01:30;;;;;;;;;;;;;;;;;;6206905;23;20337;-49
2022/04/30 06:03:56;;;;;;;;;;;;;;;;;;6207922;23;19911;-52
2022/04/30 06:06:22;;;;;;;;;;;;;;;;;;6207123;23;20381;-50
2022/04/30 06:08:48;;;;;;;;;;;;;;;;;;6207911;23;20323;-52
2022/04/30 06:11:14;;;;;;;;;;;;;;;;;;6206274;23;19904;-48
2022/04/30 06:13:41;;;;;;;;;;;;;;;;;;6206963;23;19955;-52
2022/04/30 06:16:06;;;;;;;;;;;;;;;;;;6206927;23;19903;-51
2022/04/30 06:18:32;;;;;;;;;;;;;;;;;;6207260;23;19987;-52
2022/04/30 06:20:58;;;;;;;;;;;;;;;;;;6209347;23;19900;-51
2022/04/30 06:23:24;;;;;;;;;;;;;;;;;;6209528;23;19907;-51
2022/04/30 06:25:50;;;;;;;;;;;;;;;;;;6208338;23;19904;-48
2022/04/30 06:28:16;;;;;;;;;;;;;;;;;;6209114;23;20333;-47
2022/04/30 06:30:42;;;;;;;;;;;;;;;;;;6209307;23;19908;-52
2022/04/30 06:33:08;;;;;;;;;;;;;;;;;;6208636;23;19982;-51
2022/04/30 06:35:35;;;;;;;;;;;;;;;;;;6207776;23;19904;-50
2022/04/30 06:38:01;;;;;;;;;;;;;;;;;;6209028;23;19900;-52
2022/04/30 06:40:27;;;;;;;;;;;;;;;;;;6209111;23;19954;-47
2022/04/30 06:42:53;;;;;;;;;;;;;;;;;;6208868;23;19911;-51
2022/04/30 06:45:19;;;;;;;;;;;;;;;;;;6208075;23;19983;-53
2022/04/30 06:47:45;;;;;;;;;;;;;;;;;;6209040;23;19935;-51
2022/04/30 06:50:11;;;;;;;;;;;;;;;;;;6209090;23;19900;-49
2022/04/30 06:57:07;;;;;;;;;;;;;;;;;;6208454;23;19912;-51
2022/04/30 06:58:07;;;;;;;;;;;;;;;;;;6208817;23;19910;-52
2022/04/30 07:01:28;;;;;;;;;;;;;;;;;;6208218;23;20256;-51
2022/04/30 07:03:27;;;;;;;;;;;;;;;;;;6208456;23;19978;-52
2022/04/30 07:05:55;;;;;;;;;;;;;;;;;;6182362;23;19957;-51
2022/04/30 07:08:21;;;;;;;;;;;;;;;;;;6208444;23;19958;-51
2022/04/30 07:10:47;;;;;;;;;;;;;;;;;;6207930;23;19911;-50
2022/04/30 07:13:13;;;;;;;;;;;;;;;;;;6208631;23;19908;-53
2022/04/30 07:15:39;;;;;;;;;;;;;;;;;;6208457;23;19906;-51
2022/04/30 07:18:05;;;;;;;;;;;;;;;;;;6208696;23;19904;-51
2022/04/30 07:20:31;;;;;;;;;;;;;;;;;;6207569;23;19975;-51
2022/04/30 07:22:57;;;;;;;;;;;;;;;;;;6208859;23;19978;-50
2022/04/30 07:25:23;;;;;;;;;;;;;;;;;;6207282;23;19910;-53
2022/04/30 07:27:49;;;;;;;;;;;;;;;;;;6208426;23;19904;-52
2022/04/30 07:30:15;;;;;;;;;;;;;;;;;;6208400;23;19907;-51
2022/04/30 07:32:41;;;;;;;;;;;;;;;;;;6207741;23;19975;-53
2022/04/30 07:35:07;;;;;;;;;;;;;;;;;;6208542;23;19907;-52
2022/04/30 07:37:33;;;;;;;;;;;;;;;;;;6207159;23;19986;-51
2022/04/30 07:39:59;;;;;;;;;;;;;;;;;;6208106;23;19926;-52
2022/04/30 07:42:24;;;;;;;;;;;;;;;;;;6207028;23;19899;-48
2022/04/30 07:44:50;;;;;;;;;;;;;;;;;;6207708;23;19911;-52
2022/04/30 07:47:16;;;;;;;;;;;;;;;;;;6208633;23;19923;-50
2022/04/30 07:49:42;;;;;;;;;;;;;;;;;;6208684;23;19911;-52
2022/04/30 07:52:09;;;;;;;;;;;;;;;;;;6205502;23;20269;-51
2022/04/30 07:54:35;;;;;;;;;;;;;;;;;;6207495;23;19900;-53
2022/04/30 07:57:01;;;;;;;;;;;;;;;;;;6208797;23;19900;-52
2022/04/30 07:59:28;;;;;;;;;;;;;;;;;;6208342;23;19941;-51
2022/04/30 08:01:54;;;;;;;;;;;;;;;;;;6208720;23;19904;-49
2022/04/30 08:04:20;;;;;;;;;;;;;;;;;;6207816;23;19906;-51
2022/04/30 08:06:46;;;;;;;;;;;;;;;;;;6208783;23;19908;-50
2022/04/30 08:09:12;;;;;;;;;;;;;;;;;;6209830;23;19900;-53
2022/04/30 08:11:38;;;;;;;;;;;;;;;;;;6208125;23;19908;-52
2022/04/30 08:14:05;;;;;;;;;;;;;;;;;;6208782;23;19904;-52
2022/04/30 08:16:31;;;;;;;;;;;;;;;;;;6208158;23;19931;-50
2022/04/30 08:18:58;;;;;;;;;;;;;;;;;;6206447;23;19904;-50
2022/04/30 08:21:25;;;;;;;;;;;;;;;;;;6207040;23;19904;-52
2022/04/30 08:23:50;;;;;;;;;;;;;;;;;;6207273;23;19923;-52
2022/04/30 08:26:17;;;;;;;;;;;;;;;;;;6207562;23;20539;-52
2022/04/30 08:28:43;;;;;;;;;;;;;;;;;;6207301;23;19904;-52
2022/04/30 08:31:09;;;;;;;;;;;;;;;;;;6208344;23;19962;-51
2022/04/30 08:33:36;;;;;;;;;;;;;;;;;;6206616;23;20330;-52
2022/04/30 08:36:02;;;;;;;;;;;;;;;;;;6207317;23;19910;-51
2022/04/30 08:38:27;;;;;;;;;;;;;;;;;;6207148;23;19908;-53
2022/04/30 08:40:53;;;;;;;;;;;;;;;;;;6206609;23;20229;-52
2022/04/30 08:43:19;;;;;;;;;;;;;;;;;;6207055;23;19906;-49
2022/04/30 08:45:48;;;;;;;;;;;;;;;;;;6206525;23;20337;-48
2022/04/30 08:48:15;;;;;;;;;;;;;;;;;;6207283;23;19910;-48
2022/04/30 08:50:41;;;;;;;;;;;;;;;;;;6207748;23;19900;-51
2022/04/30 08:53:07;;;;;;;;;;;;;;;;;;6207062;23;19911;-50
2022/04/30 08:55:33;;;;;;;;;;;;;;;;;;6206614;23;19953;-53
2022/04/30 08:57:59;;;;;;;;;;;;;;;;;;6207322;23;20262;-51
2022/04/30 09:00:25;;;;;;;;;;;;;;;;;;6206664;23;19903;-51
2022/04/30 09:02:51;;;;;;;;;;;;;;;;;;6206657;23;20261;-51
2022/04/30 09:05:16;;;;;;;;;;;;;;;;;;6206242;23;20371;-51
2022/04/30 09:07:42;;;;;;;;;;;;;;;;;;6207678;23;20330;-52
2022/04/30 09:10:09;;;;;;;;;;;;;;;;;;6207525;23;19938;-51
2022/04/30 09:12:36;;;;;;;;;;;;;;;;;;6206825;23;20253;-52
2022/04/30 09:15:03;;;;;;;;;;;;;;;;;;6206831;23;19900;-52
2022/04/30 09:17:29;;;;;;;;;;;;;;;;;;6206851;23;20253;-51
2022/04/30 09:19:55;;;;;;;;;;;;;;;;;;6206902;23;19900;-51
2022/04/30 09:22:21;;;;;;;;;;;;;;;;;;6207041;23;19900;-51
2022/04/30 09:24:48;;;;;;;;;;;;;;;;;;6206807;23;19903;-52
2022/04/30 09:27:15;;;;;;;;;;;;;;;;;;6207136;23;19954;-49
2022/04/30 09:29:41;;;;;;;;;;;;;;;;;;6207531;23;20226;-52
2022/04/30 09:32:07;;;;;;;;;;;;;;;;;;6206873;23;19961;-52
2022/04/30 09:40:02;;;;;;;;;;;;;;;;;;6207229;23;20257;-52
2022/04/30 09:42:29;;;;;;;;;;;;;;;;;;6205579;23;19904;-50
2022/04/30 09:44:56;;;;;;;;;;;;;;;;;;6207457;23;19922;-52
2022/04/30 09:47:23;;;;;;;;;;;;;;;;;;6208744;23;19904;-52
2022/04/30 09:55:19;;;;;;;;;;;;;;;;;;6208514;23;20467;-52
2022/04/30 09:57:45;;;;;;;;;;;;;;;;;;6208818;23;19927;-52
2022/04/30 10:00:10;;;;;;;;;;;;;;;;;;6209408;23;19983;-52
2022/04/30 10:02:37;;;;;;;;;;;;;;;;;;6208472;23;19918;-52
2022/04/30 10:05:03;;;;;;;;;;;;;;;;;;6207460;23;19906;-49
2022/04/30 10:07:32;;;;;;;;;;;;;;;;;;6208262;23;19990;-52
2022/04/30 10:09:58;;;;;;;;;;;;;;;;;;6209031;23;19986;-51
2022/04/30 10:12:26;;;;;;;;;;;;;;;;;;6208569;23;19908;-48
2022/04/30 10:14:52;;;;;;;;;;;;;;;;;;6208768;23;19907;-48
2022/04/30 10:17:23;;;;;;;;;;;;;;;;;;6208396;23;19899;-48
2022/04/30 10:19:49;;;;;;;;;;;;;;;;;;6209405;23;19914;-51
2022/04/30 10:22:15;;;;;;;;;;;;;;;;;;6208628;23;20399;-52
2022/04/30 10:24:41;;;;;;;;;;;;;;;;;;6208963;23;19904;-52
2022/04/30 10:27:08;;;;;;;;;;;;;;;;;;6208610;23;19907;-52
2022/04/30 10:29:34;;;;;;;;;;;;;;;;;;6208249;23;20254;-52
2022/04/30 10:32:00;;;;;;;;;;;;;;;;;;6208519;23;19908;-50
2022/04/30 10:34:25;;;;;;;;;;;;;;;;;;6208107;23;19900;-53
2022/04/30 10:36:52;;;;;;;;;;;;;;;;;;6208537;23;19899;-52
2022/04/30 10:39:18;;;;;;;;;;;;;;;;;;6207663;23;19935;-51
2022/04/30 10:41:45;;;;;;;;;;;;;;;;;;6209015;23;19903;-51
2022/04/30 10:44:12;;;;;;;;;;;;;;;;;;6210690;23;19904;-50
2022/04/30 10:46:39;;;;;;;;;;;;;;;;;;6210350;23;19924;-52
2022/04/30 10:49:05;;;;;;;;;;;;;;;;;;6209874;23;19938;-51
2022/04/30 10:51:31;;;;;;;;;;;;;;;;;;6209485;23;19998;-53
2022/04/30 10:53:57;;;;;;;;;;;;;;;;;;6209728;23;19942;-53
2022/04/30 10:56:23;;;;;;;;;;;;;;;;;;6207763;23;19979;-53
2022/04/30 10:58:49;;;;;;;;;;;;;;;;;;6208358;23;19904;-51
2022/04/30 11:01:15;;;;;;;;;;;;;;;;;;6208218;23;19907;-51
2022/04/30 11:03:41;;;;;;;;;;;;;;;;;;6208728;23;19904;-48
2022/04/30 11:06:07;;;;;;;;;;;;;;;;;;6206555;23;19908;-52
2022/04/30 11:08:33;;;;;;;;;;;;;;;;;;6207565;23;19922;-50
2022/04/30 11:10:59;;;;;;;;;;;;;;;;;;6206812;23;19908;-52
2022/04/30 11:13:25;;;;;;;;;;;;;;;;;;6207782;23;19904;-52
2022/04/30 11:15:51;;;;;;;;;;;;;;;;;;6208689;23;19900;-51
2022/04/30 11:18:17;;;;;;;;;;;;;;;;;;6209307;23;19911;-52
2022/04/30 11:20:43;;;;;;;;;;;;;;;;;;6207027;23;19900;-50
2022/04/30 11:23:09;;;;;;;;;;;;;;;;;;6209938;23;19900;-51
2022/04/30 11:25:35;;;;;;;;;;;;;;;;;;6208906;23;19908;-56
2022/04/30 11:28:01;;;;;;;;;;;;;;;;;;6208432;23;19907;-52
2022/04/30 11:30:27;;;;;;;;;;;;;;;;;;6208279;23;19903;-52
2022/04/30 11:32:53;;;;;;;;;;;;;;;;;;6208334;23;19911;-51
2022/04/30 11:35:19;;;;;;;;;;;;;;;;;;6207970;23;19954;-53
2022/04/30 11:37:45;;;;;;;;;;;;;;;;;;6207970;23;19904;-54
2022/04/30 11:40:11;;;;;;;;;;;;;;;;;;6208862;23;19934;-51
2022/04/30 11:42:37;;;;;;;;;;;;;;;;;;6207802;23;19907;-51
2022/04/30 11:45:03;;;;;;;;;;;;;;;;;;6208146;23;20296;-52
2022/04/30 11:47:30;;;;;;;;;;;;;;;;;;6207989;23;19900;-52
2022/04/30 11:49:56;;;;;;;;;;;;;;;;;;6208159;23;19953;-52
2022/04/30 11:52:22;;;;;;;;;;;;;;;;;;6207601;23;19943;-51
2022/04/30 11:54:48;;;;;;;;;;;;;;;;;;6207958;23;19900;-51
2022/04/30 11:57:13;;;;;;;;;;;;;;;;;;6208912;23;19904;-50
2022/04/30 11:59:39;;;;;;;;;;;;;;;;;;6208652;23;19927;-50
2022/04/30 12:02:05;;;;;;;;;;;;;;;;;;6208274;23;19925;-52
2022/04/30 12:04:31;;;;;;;;;;;;;;;;;;6207786;23;19906;-52
2022/04/30 12:06:57;;;;;;;;;;;;;;;;;;6207428;23;19916;-52
2022/04/30 12:09:23;;;;;;;;;;;;;;;;;;6207265;23;19926;-52
2022/04/30 12:11:50;;;;;;;;;;;;;;;;;;6206280;23;19911;-52
2022/04/30 12:14:16;;;;;;;;;;;;;;;;;;6207318;23;20383;-53
2022/04/30 12:16:42;;;;;;;;;;;;;;;;;;6209842;23;19907;-50
2022/04/30 12:24:40;;;;;;;;;;;;;;;;;;6207432;23;19927;-50
2022/04/30 12:27:09;;;;;;;;;;;;;;;;;;6208904;23;19957;-51
2022/04/30 12:29:35;;;;;;;;;;;;;;;;;;6208232;23;19910;-51
2022/04/30 12:32:01;;;;;;;;;;;;;;;;;;6207823;23;19904;-50
2022/04/30 12:34:27;;;;;;;;;;;;;;;;;;6207905;23;20505;-51
2022/04/30 12:36:53;;;;;;;;;;;;;;;;;;6207993;23;19926;-52
2022/04/30 12:39:19;;;;;;;;;;;;;;;;;;6208181;23;19900;-49
2022/04/30 12:41:45;;;;;;;;;;;;;;;;;;6208284;23;19990;-52
2022/04/30 12:44:11;;;;;;;;;;;;;;;;;;6209444;23;19904;-51
2022/04/30 12:46:40;;;;;;;;;;;;;;;;;;6208547;23;19907;-54
2022/04/30 12:49:06;;;;;;;;;;;;;;;;;;6208490;23;19911;-51
2022/04/30 12:51:32;;;;;;;;;;;;;;;;;;6208351;23;19979;-52
2022/04/30 12:53:58;;;;;;;;;;;;;;;;;;6207701;23;19900;-51
2022/04/30 12:56:24;;;;;;;;;;;;;;;;;;6208381;23;19911;-50
2022/04/30 12:58:50;;;;;;;;;;;;;;;;;;6208573;23;19904;-50
2022/04/30 13:01:16;;;;;;;;;;;;;;;;;;6207868;23;19974;-48
2022/04/30 13:03:42;;;;;;;;;;;;;;;;;;6205441;23;19899;-53
2022/04/30 13:06:08;;;;;;;;;;;;;;;;;;6203550;23;20234;-51
2022/04/30 13:14:04;;;;;;;;;;;;;;;;;;6205993;23;19910;-52
2022/04/30 13:16:30;;;;;;;;;;;;;;;;;;6204072;23;20125;-52
2022/04/30 13:18:56;;;;;;;;;;;;;;;;;;6204279;23;19927;-52
2022/04/30 13:21:23;;;;;;;;;;;;;;;;;;6205648;23;19904;-51
2022/04/30 13:23:48;;;;;;;;;;;;;;;;;;6206160;23;19904;-53
2022/04/30 13:26:14;;;;;;;;;;;;;;;;;;6206521;23;19962;-52
2022/04/30 13:28:40;;;;;;;;;;;;;;;;;;6206657;23;19994;-49
2022/04/30 13:31:06;;;;;;;;;;;;;;;;;;6206022;23;19943;-52
2022/04/30 13:33:32;;;;;;;;;;;;;;;;;;6179785;23;19923;-53
2022/04/30 13:35:59;;;;;;;;;;;;;;;;;;6204080;23;20325;-52
2022/04/30 13:38:25;;;;;;;;;;;;;;;;;;6206343;23;19906;-50
2022/04/30 13:40:52;;;;;;;;;;;;;;;;;;6205405;23;19987;-54
2022/04/30 13:43:19;;;;;;;;;;;;;;;;;;6205600;23;19903;-52
2022/04/30 13:45:44;;;;;;;;;;;;;;;;;;6206262;23;19966;-52
2022/04/30 13:48:10;;;;;;;;;;;;;;;;;;6207332;23;19900;-52
2022/04/30 13:50:36;;;;;;;;;;;;;;;;;;6208016;23;20762;-52
2022/04/30 13:53:02;;;;;;;;;;;;;;;;;;6208131;23;19904;-52
2022/04/30 13:55:29;;;;;;;;;;;;;;;;;;6207390;23;19900;-52
2022/04/30 13:57:55;;;;;;;;;;;;;;;;;;6181515;23;20360;-52
2022/04/30 14:00:21;;;;;;;;;;;;;;;;;;6207249;23;19903;-51
2022/04/30 14:02:47;;;;;;;;;;;;;;;;;;6207905;23;19915;-52
2022/04/30 14:05:14;;;;;;;;;;;;;;;;;;6207209;23;19900;-52
2022/04/30 14:07:41;;;;;;;;;;;;;;;;;;6207954;23;19931;-52
2022/04/30 14:10:08;;;;;;;;;;;;;;;;;;6209629;23;20336;-51
2022/04/30 14:12:34;;;;;;;;;;;;;;;;;;6207493;23;19903;-51
2022/04/30 14:15:00;;;;;;;;;;;;;;;;;;6178527;23;19980;-52
2022/04/30 14:20:13;;;;;;;;;;;;;;;;;;6207894;23;19954;-48
2022/04/30 14:22:39;;;;;;;;;;;;;;;;;;6206826;23;19926;-49
2022/04/30 14:25:07;;;;;;;;;;;;;;;;;;6181356;23;19904;-51
2022/04/30 14:27:34;;;;;;;;;;;;;;;;;;6206742;23;20345;-48
2022/04/30 14:30:01;;;;;;;;;;;;;;;;;;6179210;23;19900;-50
2022/04/30 14:32:28;;;;;;;;;;;;;;;;;;6205243;23;19942;-52
2022/04/30 14:34:55;;;;;;;;;;;;;;;;;;6206004;23;19967;-49
2022/04/30 14:37:22;;;;;;;;;;;;;;;;;;6206119;23;19910;-52
2022/04/30 14:39:48;;;;;;;;;;;;;;;;;;6206485;23;19900;-52
2022/04/30 14:42:14;;;;;;;;;;;;;;;;;;6207949;23;19906;-51
2022/04/30 14:44:42;;;;;;;;;;;;;;;;;;6179751;23;19900;-52
2022/04/30 14:47:08;;;;;;;;;;;;;;;;;;6206814;23;19904;-49
2022/04/30 14:49:35;;;;;;;;;;;;;;;;;;6205823;23;19943;-52
2022/04/30 14:52:02;;;;;;;;;;;;;;;;;;6205829;23;19991;-50
2022/04/30 14:54:28;;;;;;;;;;;;;;;;;;6205450;23;19900;-52
2022/04/30 14:56:54;;;;;;;;;;;;;;;;;;6206544;23;19981;-52
2022/04/30 14:59:21;;;;;;;;;;;;;;;;;;6205629;23;19900;-49
2022/04/30 15:01:47;;;;;;;;;;;;;;;;;;6179454;23;20269;-50
2022/04/30 15:04:13;;;;;;;;;;;;;;;;;;6205937;23;19904;-48
2022/04/30 15:06:39;;;;;;;;;;;;;;;;;;6174589;23;20007;-49
2022/04/30 15:09:05;;;;;;;;;;;;;;;;;;6175599;23;19908;-52
2022/04/30 15:11:31;;;;;;;;;;;;;;;;;;6175333;23;20333;-52
2022/04/30 15:13:57;;;;;;;;;;;;;;;;;;6175520;23;19935;-49
2022/04/30 15:16:23;;;;;;;;;;;;;;;;;;6175266;23;20330;-51
2022/04/30 15:18:49;;;;;;;;;;;;;;;;;;6176072;23;19900;-52
2022/04/30 15:21:15;;;;;;;;;;;;;;;;;;6175499;23;19904;-52
2022/04/30 15:23:40;;;;;;;;;;;;;;;;;;6175547;23;19911;-52
2022/04/30 15:26:07;;;;;;;;;;;;;;;;;;6175646;23;19908;-52
2022/04/30 15:28:33;;;;;;;;;;;;;;;;;;6174501;23;19900;-51
2022/04/30 15:30:59;;;;;;;;;;;;;;;;;;6175411;23;19907;-52
2022/04/30 15:33:25;;;;;;;;;;;;;;;;;;6174031;23;20227;-52
2022/04/30 15:35:52;;;;;;;;;;;;;;;;;;6177067;23;20250;-52
2022/04/30 15:38:18;;;;;;;;;;;;;;;;;;6176043;23;19975;-52
2022/04/30 15:40:47;;;;;;;;;;;;;;;;;;6175447;23;19938;-51
2022/04/30 15:43:13;;;;;;;;;;;;;;;;;;6176532;23;19908;-50
2022/04/30 15:45:39;;;;;;;;;;;;;;;;;;6174714;23;19900;-52
2022/04/30 15:56:19;;;;;;;;;;;;;;;;;;6176594;23;19907;-51
2022/04/30 15:58:45;;;;;;;;;;;;;;;;;;6178009;23;20357;-53
2022/04/30 16:01:11;;;;;;;;;;;;;;;;;;6177407;23;19900;-52
2022/04/30 16:03:37;;;;;;;;;;;;;;;;;;6177399;23;20393;-53
2022/04/30 16:06:03;;;;;;;;;;;;;;;;;;6179680;23;19938;-53
2022/04/30 16:08:29;;;;;;;;;;;;;;;;;;6208314;23;19987;-51
2022/04/30 16:10:55;;;;;;;;;;;;;;;;;;6208724;23;19961;-51
2022/04/30 16:13:21;;;;;;;;;;;;;;;;;;6208346;23;19900;-51
2022/04/30 16:15:47;;;;;;;;;;;;;;;;;;6208134;23;19939;-52
2022/04/30 16:18:13;;;;;;;;;;;;;;;;;;6206618;23;19971;-52
2022/04/30 16:20:39;;;;;;;;;;;;;;;;;;6208031;23;19900;-52
2022/04/30 16:23:05;;;;;;;;;;;;;;;;;;6208077;23;19904;-52
2022/04/30 16:25:31;;;;;;;;;;;;;;;;;;6207422;23;19906;-53
2022/04/30 16:27:57;;;;;;;;;;;;;;;;;;6207692;23;19986;-52
2022/04/30 16:30:23;;;;;;;;;;;;;;;;;;6209057;23;19911;-52
2022/04/30 16:32:50;;;;;;;;;;;;;;;;;;6207168;23;19911;-51
2022/04/30 16:35:17;;;;;;;;;;;;;;;;;;6207067;23;20415;-52
2022/04/30 16:37:44;;;;;;;;;;;;;;;;;;6208724;23;19940;-53
2022/04/30 16:40:10;;;;;;;;;;;;;;;;;;6208276;23;19903;-52
2022/04/30 16:42:36;;;;;;;;;;;;;;;;;;6207610;23;19979;-52
2022/04/30 16:45:03;;;;;;;;;;;;;;;;;;6207580;23;19962;-52
2022/04/30 16:47:29;;;;;;;;;;;;;;;;;;6208331;23;19900;-52
2022/04/30 16:49:55;;;;;;;;;;;;;;;;;;6208844;23;19900;-51
2022/04/30 16:52:22;;;;;;;;;;;;;;;;;;6208778;23;19965;-52
2022/04/30 16:57:33;;;;;;;;;;;;;;;;;;6207669;23;20403;-52
2022/04/30 17:00:10;;;;;;;;;;;;;;;;;;6208216;23;19900;-52
2022/04/30 17:02:36;;;;;;;;;;;;;;;;;;6206454;23;19924;-53
2022/04/30 17:05:02;;;;;;;;;;;;;;;;;;6208034;23;20336;-52
2022/04/30 17:07:32;;;;;;;;;;;;;;;;;;6207450;23;19947;-51
2022/04/30 17:09:59;;;;;;;;;;;;;;;;;;6208705;23;19903;-52
2022/04/30 17:12:25;;;;;;;;;;;;;;;;;;6208649;23;19904;-50
2022/04/30 17:14:50;;;;;;;;;;;;;;;;;;6208817;23;19954;-48
2022/04/30 17:17:16;;;;;;;;;;;;;;;;;;6206777;23;19904;-50
2022/04/30 17:19:42;;;;;;;;;;;;;;;;;;6207842;23;19918;-52
2022/04/30 17:22:09;;;;;;;;;;;;;;;;;;6207213;23;19903;-52
2022/04/30 17:24:35;;;;;;;;;;;;;;;;;;6207457;23;19900;-52
2022/04/30 17:27:01;;;;;;;;;;;;;;;;;;6207281;23;20000;-53
2022/04/30 17:29:27;;;;;;;;;;;;;;;;;;6208358;23;20284;-52
2022/04/30 17:40:08;;;;;;;;;;;;;;;;;;6208668;23;19912;-52
2022/04/30 17:42:34;;;;;;;;;;;;;;;;;;6207202;23;19904;-54
2022/04/30 17:45:00;;;;;;;;;;;;;;;;;;6208102;23;19899;-52
2022/04/30 17:47:26;;;;;;;;;;;;;;;;;;6204965;23;19911;-49